sensor_id;sensor_type;location;lat;lon;timestamp;pressure;altitude;pressure_sealevel;temperature;humidity
69198;BME280;56311;50.298;8.514;2023-05-10T00:00:00;96970.0;;;12.0;100.0
69198;BME280;56311;50.298;8.514;2023-05-10T00:02:00;96970.0;;;11.9;100.0
69198;BME280;56311;50.298;8.514;2023-05-10T00:04:00;96970.0;;;11.9;100.0
69198;BME280;56311;50.298;8.514;2023-05-10T00:06:00;96970.0;;;11.9;100.0
69198;BME280;56311;50.298;8.514;2023-05-10T00:08:00;96970.0;;;11.8;100.0
69198;BME280;56311;50.298;8.514;2023-05-10T00:10:00;96970.0;;;11.8;100.0
69198;BME280;56311;50.298;8.514;2023-05-10T00:12:00;96970.0;;;11.8;100.0
69198;BME280;56311;50.298;8.514;2023-05-10T00:14:00;96970.0;;;11.8;100.0
69198;BME280;56311;50.298;8.514;2023-05-10T00:16:00;96970.0;;;11.8;100.0
69198;BME280;56311;50.298;8.514;2023-05-10T00:18:00;96970.0;;;11.8;100.0
69198;BME280;56311;50.298;8.514;2023-05-10T00:20:00;96970.0;;;11.7;100.0
69198;BME280;56311;50.298;8.514;2023-05-10T00:22:00;96970.0;;;11.7;100.0
69198;BME280;56311;50.298;8.514;2023-05-10T00:24:00;96970.0;;;11.7;100.0
69198;BME280;56311;50.298;8.514;2023-05-10T00:26:00;96970.0;;;11.7;100.0
69198;BME280;56311;50.298;8.514;2023-05-10T00:28:00;96970.0;;;11.7;100.0
69198;BME280;56311;50.298;8.514;2023-05-10T00:30:00;96970.0;;;11.7;100.0
69198;BME280;56311;50.298;8.514;2023-05-10T00:32:00;96970.0;;;11.6;100.0
69198;BME280;56311;50.298;8.514;2023-05-10T00:34:00;96970.0;;;11.6;100.0
69198;BME280;56311;50.298;8.514;2023-05-10T00:36:00;96970.0;;;11.6;100.0
69198;BME280;56311;50.298;8.514;2023-05-10T00:38:00;96970.0;;;11.6;100.0
69198;BME280;56311;50.298;8.514;2023-05-10T00:40:00;96970.0;;;11.5;100.0
69198;BME280;56311;50.298;8.514;2023-05-10T00:42:00;96980.0;;;11.5;100.0
69198;BME280;56311;50.298;8.514;2023-05-10T00:44:00;96980.0;;;11.5;100.0
69198;BME280;56311;50.298;8.514;2023-05-10T00:46:00;96980.0;;;11.4;100.0
69198;BME280;56311;50.298;8.514;2023-05-10T00:48:02;96980.0;;;11.4;100.0
69198;BME280;56311;50.298;8.514;2023-05-10T00:50:01;96980.0;;;11.4;100.0
69198;BME280;56311;50.298;8.514;2023-05-10T00:52:00;96980.0;;;11.4;100.0
69198;BME280;56311;50.298;8.514;2023-05-10T00:54:00;96980.0;;;11.4;100.0
69198;BME280;56311;50.298;8.514;2023-05-10T00:56:01;96980.0;;;11.3;100.0
69198;BME280;56311;50.298;8.514;2023-05-10T00:58:00;96980.0;;;11.3;100.0
69198;BME280;56311;50.298;8.514;2023-05-10T01:00:01;96980.0;;;11.3;100.0
69198;BME280;56311;50.298;8.514;2023-05-10T01:02:01;96980.0;;;11.3;100.0
69198;BME280;56311;50.298;8.514;2023-05-10T01:04:00;96980.0;;;11.3;100.0
69198;BME280;56311;50.298;8.514;2023-05-10T01:06:00;96980.0;;;11.2;100.0
69198;BME280;56311;50.298;8.514;2023-05-10T01:14:01;96980.0;;;11.2;100.0
69198;BME280;56311;50.298;8.514;2023-05-10T01:16:00;96980.0;;;11.2;100.0
69198;BME280;56311;50.298;8.514;2023-05-10T01:18:01;96980.0;;;11.2;100.0
69198;BME280;56311;50.298;8.514;2023-05-10T01:20:00;96980.0;;;11.2;100.0
69198;BME280;56311;50.298;8.514;2023-05-10T01:22:07;96970.0;;;11.1;100.0
69198;BME280;56311;50.298;8.514;2023-05-10T01:24:21;96980.0;;;11.1;100.0
69198;BME280;56311;50.298;8.514;2023-05-10T01:30:13;96980.0;;;11.1;100.0
69198;BME280;56311;50.298;8.514;2023-05-10T01:32:14;96980.0;;;11.2;100.0
69198;BME280;56311;50.298;8.514;2023-05-10T01:34:02;96980.0;;;11.2;100.0
69198;BME280;56311;50.298;8.514;2023-05-10T01:36:05;96990.0;;;11.1;100.0
69198;BME280;56311;50.298;8.514;2023-05-10T01:38:06;96990.0;;;11.2;100.0
69198;BME280;56311;50.298;8.514;2023-05-10T01:40:07;97000.0;;;11.2;100.0
69198;BME280;56311;50.298;8.514;2023-05-10T01:42:04;96990.0;;;11.1;100.0
69198;BME280;56311;50.298;8.514;2023-05-10T01:44:06;97000.0;;;11.1;100.0
69198;BME280;56311;50.298;8.514;2023-05-10T01:46:02;97000.0;;;11.1;100.0
69198;BME280;56311;50.298;8.514;2023-05-10T01:48:06;97000.0;;;11.1;100.0
69198;BME280;56311;50.298;8.514;2023-05-10T01:50:02;97000.0;;;11.1;100.0
69198;BME280;56311;50.298;8.514;2023-05-10T01:52:06;97000.0;;;11.1;100.0
69198;BME280;56311;50.298;8.514;2023-05-10T01:54:02;97010.0;;;11.1;100.0
69198;BME280;56311;50.298;8.514;2023-05-10T01:56:01;97010.0;;;11.1;100.0
69198;BME280;56311;50.298;8.514;2023-05-10T01:58:06;97010.0;;;11.1;100.0
69198;BME280;56311;50.298;8.514;2023-05-10T02:00:02;97020.0;;;11.1;100.0
69198;BME280;56311;50.298;8.514;2023-05-10T02:02:01;97020.0;;;11.1;100.0
69198;BME280;56311;50.298;8.514;2023-05-10T02:04:01;97020.0;;;11.1;100.0
69198;BME280;56311;50.298;8.514;2023-05-10T02:06:01;97020.0;;;11.1;100.0
69198;BME280;56311;50.298;8.514;2023-05-10T02:08:01;97020.0;;;11.0;100.0
69198;BME280;56311;50.298;8.514;2023-05-10T02:10:01;97020.0;;;11.1;100.0
69198;BME280;56311;50.298;8.514;2023-05-10T02:12:02;97020.0;;;11.1;100.0
69198;BME280;56311;50.298;8.514;2023-05-10T02:14:01;97010.0;;;11.1;100.0
69198;BME280;56311;50.298;8.514;2023-05-10T02:16:01;97010.0;;;11.1;100.0
69198;BME280;56311;50.298;8.514;2023-05-10T02:18:02;97020.0;;;11.1;100.0
69198;BME280;56311;50.298;8.514;2023-05-10T02:20:01;97020.0;;;11.1;100.0
69198;BME280;56311;50.298;8.514;2023-05-10T02:22:01;97020.0;;;11.1;100.0
69198;BME280;56311;50.298;8.514;2023-05-10T02:24:02;97020.0;;;11.1;100.0
69198;BME280;56311;50.298;8.514;2023-05-10T02:26:01;97020.0;;;11.1;100.0
69198;BME280;56311;50.298;8.514;2023-05-10T02:28:02;97030.0;;;11.0;100.0
69198;BME280;56311;50.298;8.514;2023-05-10T02:30:01;97020.0;;;11.0;100.0
69198;BME280;56311;50.298;8.514;2023-05-10T02:32:01;97020.0;;;11.0;100.0
69198;BME280;56311;50.298;8.514;2023-05-10T02:34:01;97030.0;;;11.0;100.0
69198;BME280;56311;50.298;8.514;2023-05-10T02:36:01;97030.0;;;11.0;100.0
69198;BME280;56311;50.298;8.514;2023-05-10T02:38:01;97030.0;;;11.0;100.0
69198;BME280;56311;50.298;8.514;2023-05-10T02:40:01;97040.0;;;11.0;100.0
69198;BME280;56311;50.298;8.514;2023-05-10T02:42:01;97040.0;;;11.0;100.0
69198;BME280;56311;50.298;8.514;2023-05-10T02:44:02;97040.0;;;11.0;100.0
69198;BME280;56311;50.298;8.514;2023-05-10T02:46:00;97050.0;;;11.0;100.0
69198;BME280;56311;50.298;8.514;2023-05-10T02:48:00;97050.0;;;11.0;100.0
69198;BME280;56311;50.298;8.514;2023-05-10T02:50:00;97050.0;;;11.0;100.0
69198;BME280;56311;50.298;8.514;2023-05-10T02:52:01;97050.0;;;11.0;100.0
69198;BME280;56311;50.298;8.514;2023-05-10T02:54:06;97050.0;;;11.0;100.0
69198;BME280;56311;50.298;8.514;2023-05-10T02:56:04;97050.0;;;11.0;100.0
69198;BME280;56311;50.298;8.514;2023-05-10T02:58:01;97050.0;;;11.0;100.0
69198;BME280;56311;50.298;8.514;2023-05-10T03:00:00;97050.0;;;11.0;100.0
69198;BME280;56311;50.298;8.514;2023-05-10T03:02:01;97050.0;;;10.9;100.0
69198;BME280;56311;50.298;8.514;2023-05-10T03:04:00;97050.0;;;10.9;100.0
69198;BME280;56311;50.298;8.514;2023-05-10T03:06:00;97050.0;;;10.9;100.0
69198;BME280;56311;50.298;8.514;2023-05-10T03:08:00;97050.0;;;11.0;100.0
69198;BME280;56311;50.298;8.514;2023-05-10T03:10:00;97050.0;;;11.0;100.0
69198;BME280;56311;50.298;8.514;2023-05-10T03:12:07;97060.0;;;10.9;100.0
69198;BME280;56311;50.298;8.514;2023-05-10T03:14:10;97060.0;;;10.9;100.0
69198;BME280;56311;50.298;8.514;2023-05-10T03:16:07;97060.0;;;10.9;100.0
69198;BME280;56311;50.298;8.514;2023-05-10T03:18:04;97060.0;;;10.9;100.0
69198;BME280;56311;50.298;8.514;2023-05-10T03:20:06;97070.0;;;10.9;100.0
69198;BME280;56311;50.298;8.514;2023-05-10T03:22:06;97060.0;;;10.9;100.0
69198;BME280;56311;50.298;8.514;2023-05-10T03:24:05;97070.0;;;10.9;100.0
69198;BME280;56311;50.298;8.514;2023-05-10T03:26:01;97070.0;;;10.9;100.0
69198;BME280;56311;50.298;8.514;2023-05-10T03:28:01;97070.0;;;10.9;100.0
69198;BME280;56311;50.298;8.514;2023-05-10T03:30:02;97070.0;;;10.9;100.0
69198;BME280;56311;50.298;8.514;2023-05-10T03:32:00;97080.0;;;10.8;100.0
69198;BME280;56311;50.298;8.514;2023-05-10T03:34:00;97070.0;;;10.8;100.0
69198;BME280;56311;50.298;8.514;2023-05-10T03:36:00;97070.0;;;10.9;100.0
69198;BME280;56311;50.298;8.514;2023-05-10T03:38:00;97070.0;;;10.8;100.0
69198;BME280;56311;50.298;8.514;2023-05-10T03:40:00;97080.0;;;10.9;100.0
69198;BME280;56311;50.298;8.514;2023-05-10T03:42:00;97080.0;;;10.8;100.0
69198;BME280;56311;50.298;8.514;2023-05-10T03:44:00;97070.0;;;10.8;100.0
69198;BME280;56311;50.298;8.514;2023-05-10T03:46:01;97070.0;;;10.9;100.0
69198;BME280;56311;50.298;8.514;2023-05-10T03:48:00;97070.0;;;10.8;100.0
69198;BME280;56311;50.298;8.514;2023-05-10T03:50:00;97070.0;;;10.8;100.0
69198;BME280;56311;50.298;8.514;2023-05-10T03:52:00;97080.0;;;10.8;100.0
69198;BME280;56311;50.298;8.514;2023-05-10T03:54:00;97080.0;;;10.8;100.0
69198;BME280;56311;50.298;8.514;2023-05-10T03:56:00;97080.0;;;10.8;100.0
69198;BME280;56311;50.298;8.514;2023-05-10T03:58:00;97090.0;;;10.8;100.0
69198;BME280;56311;50.298;8.514;2023-05-10T04:00:00;97080.0;;;10.8;100.0
69198;BME280;56311;50.298;8.514;2023-05-10T04:02:00;97090.0;;;10.8;100.0
69198;BME280;56311;50.298;8.514;2023-05-10T04:04:00;97090.0;;;10.8;100.0
69198;BME280;56311;50.298;8.514;2023-05-10T04:06:01;97090.0;;;10.8;100.0
69198;BME280;56311;50.298;8.514;2023-05-10T04:08:00;97090.0;;;10.9;100.0
69198;BME280;56311;50.298;8.514;2023-05-10T04:10:01;97090.0;;;10.8;100.0
69198;BME280;56311;50.298;8.514;2023-05-10T04:12:00;97090.0;;;10.9;100.0
69198;BME280;56311;50.298;8.514;2023-05-10T04:14:00;97090.0;;;10.9;100.0
69198;BME280;56311;50.298;8.514;2023-05-10T04:16:00;97090.0;;;10.9;100.0
69198;BME280;56311;50.298;8.514;2023-05-10T04:18:00;97090.0;;;10.9;100.0
69198;BME280;56311;50.298;8.514;2023-05-10T04:20:00;97090.0;;;10.9;100.0
69198;BME280;56311;50.298;8.514;2023-05-10T04:22:02;97080.0;;;10.9;100.0
69198;BME280;56311;50.298;8.514;2023-05-10T04:24:00;97090.0;;;10.9;100.0
69198;BME280;56311;50.298;8.514;2023-05-10T04:26:00;97090.0;;;10.9;100.0
69198;BME280;56311;50.298;8.514;2023-05-10T04:28:01;97090.0;;;10.9;100.0
69198;BME280;56311;50.298;8.514;2023-05-10T04:30:00;97090.0;;;10.9;100.0
69198;BME280;56311;50.298;8.514;2023-05-10T04:32:00;97090.0;;;10.9;100.0
69198;BME280;56311;50.298;8.514;2023-05-10T04:34:00;97090.0;;;11.0;100.0
69198;BME280;56311;50.298;8.514;2023-05-10T04:36:00;97090.0;;;11.0;100.0
69198;BME280;56311;50.298;8.514;2023-05-10T04:38:00;97090.0;;;11.0;100.0
69198;BME280;56311;50.298;8.514;2023-05-10T04:40:00;97090.0;;;11.0;100.0
69198;BME280;56311;50.298;8.514;2023-05-10T04:42:00;97100.0;;;11.0;100.0
69198;BME280;56311;50.298;8.514;2023-05-10T04:44:00;97100.0;;;11.0;100.0
69198;BME280;56311;50.298;8.514;2023-05-10T04:46:00;97100.0;;;11.0;100.0
69198;BME280;56311;50.298;8.514;2023-05-10T04:48:00;97100.0;;;11.1;100.0
69198;BME280;56311;50.298;8.514;2023-05-10T04:50:00;97100.0;;;11.1;100.0
69198;BME280;56311;50.298;8.514;2023-05-10T04:52:00;97110.0;;;11.1;100.0
69198;BME280;56311;50.298;8.514;2023-05-10T04:54:00;97100.0;;;11.1;100.0
69198;BME280;56311;50.298;8.514;2023-05-10T04:56:00;97110.0;;;11.1;100.0
69198;BME280;56311;50.298;8.514;2023-05-10T04:58:00;97110.0;;;11.1;100.0
69198;BME280;56311;50.298;8.514;2023-05-10T05:00:00;97120.0;;;11.1;100.0
69198;BME280;56311;50.298;8.514;2023-05-10T05:02:00;97110.0;;;11.1;100.0
69198;BME280;56311;50.298;8.514;2023-05-10T05:04:00;97120.0;;;11.1;100.0
69198;BME280;56311;50.298;8.514;2023-05-10T05:06:00;97120.0;;;11.1;100.0
69198;BME280;56311;50.298;8.514;2023-05-10T05:08:00;97120.0;;;11.1;100.0
69198;BME280;56311;50.298;8.514;2023-05-10T05:10:00;97120.0;;;11.1;100.0
69198;BME280;56311;50.298;8.514;2023-05-10T05:12:00;97120.0;;;11.2;100.0
69198;BME280;56311;50.298;8.514;2023-05-10T05:14:00;97120.0;;;11.2;100.0
69198;BME280;56311;50.298;8.514;2023-05-10T05:16:01;97120.0;;;11.2;100.0
69198;BME280;56311;50.298;8.514;2023-05-10T05:18:00;97120.0;;;11.3;100.0
69198;BME280;56311;50.298;8.514;2023-05-10T05:20:00;97120.0;;;11.3;100.0
69198;BME280;56311;50.298;8.514;2023-05-10T05:22:00;97120.0;;;11.4;100.0
69198;BME280;56311;50.298;8.514;2023-05-10T05:24:00;97130.0;;;11.4;100.0
69198;BME280;56311;50.298;8.514;2023-05-10T05:26:00;97130.0;;;11.4;100.0
69198;BME280;56311;50.298;8.514;2023-05-10T05:28:00;97130.0;;;11.4;100.0
69198;BME280;56311;50.298;8.514;2023-05-10T05:30:00;97130.0;;;11.4;100.0
69198;BME280;56311;50.298;8.514;2023-05-10T05:32:00;97130.0;;;11.4;100.0
69198;BME280;56311;50.298;8.514;2023-05-10T05:34:00;97130.0;;;11.4;100.0
69198;BME280;56311;50.298;8.514;2023-05-10T05:36:01;97140.0;;;11.4;100.0
69198;BME280;56311;50.298;8.514;2023-05-10T05:38:00;97140.0;;;11.4;100.0
69198;BME280;56311;50.298;8.514;2023-05-10T05:40:01;97130.0;;;11.4;100.0
69198;BME280;56311;50.298;8.514;2023-05-10T05:42:00;97140.0;;;11.4;100.0
69198;BME280;56311;50.298;8.514;2023-05-10T05:44:00;97140.0;;;11.4;100.0
69198;BME280;56311;50.298;8.514;2023-05-10T05:46:00;97150.0;;;11.4;100.0
69198;BME280;56311;50.298;8.514;2023-05-10T05:48:00;97150.0;;;11.4;100.0
69198;BME280;56311;50.298;8.514;2023-05-10T05:50:00;97150.0;;;11.3;100.0
69198;BME280;56311;50.298;8.514;2023-05-10T05:52:01;97150.0;;;11.2;100.0
69198;BME280;56311;50.298;8.514;2023-05-10T05:54:00;97150.0;;;11.1;100.0
69198;BME280;56311;50.298;8.514;2023-05-10T05:56:01;97150.0;;;11.1;100.0
69198;BME280;56311;50.298;8.514;2023-05-10T05:58:00;97150.0;;;11.0;100.0
69198;BME280;56311;50.298;8.514;2023-05-10T06:00:00;97150.0;;;11.0;100.0
69198;BME280;56311;50.298;8.514;2023-05-10T06:02:00;97150.0;;;11.0;100.0
69198;BME280;56311;50.298;8.514;2023-05-10T06:04:00;97160.0;;;11.1;100.0
69198;BME280;56311;50.298;8.514;2023-05-10T06:06:00;97160.0;;;11.1;100.0
69198;BME280;56311;50.298;8.514;2023-05-10T06:08:00;97160.0;;;11.1;100.0
69198;BME280;56311;50.298;8.514;2023-05-10T06:10:00;97160.0;;;11.1;100.0
69198;BME280;56311;50.298;8.514;2023-05-10T06:12:00;97160.0;;;11.2;100.0
69198;BME280;56311;50.298;8.514;2023-05-10T06:14:01;97170.0;;;11.2;100.0
69198;BME280;56311;50.298;8.514;2023-05-10T06:16:00;97160.0;;;11.5;100.0
69198;BME280;56311;50.298;8.514;2023-05-10T06:18:00;97170.0;;;11.7;100.0
69198;BME280;56311;50.298;8.514;2023-05-10T06:20:00;97170.0;;;11.7;100.0
69198;BME280;56311;50.298;8.514;2023-05-10T06:22:00;97170.0;;;11.8;100.0
69198;BME280;56311;50.298;8.514;2023-05-10T06:24:00;97170.0;;;11.9;100.0
69198;BME280;56311;50.298;8.514;2023-05-10T06:26:00;97170.0;;;11.9;100.0
69198;BME280;56311;50.298;8.514;2023-05-10T06:28:00;97180.0;;;11.9;100.0
69198;BME280;56311;50.298;8.514;2023-05-10T06:30:00;97180.0;;;11.9;100.0
69198;BME280;56311;50.298;8.514;2023-05-10T06:32:01;97170.0;;;11.9;100.0
69198;BME280;56311;50.298;8.514;2023-05-10T06:34:00;97170.0;;;11.9;100.0
69198;BME280;56311;50.298;8.514;2023-05-10T06:36:00;97170.0;;;12.0;100.0
69198;BME280;56311;50.298;8.514;2023-05-10T06:38:00;97170.0;;;11.9;100.0
69198;BME280;56311;50.298;8.514;2023-05-10T06:40:00;97170.0;;;11.9;100.0
69198;BME280;56311;50.298;8.514;2023-05-10T06:42:00;97170.0;;;12.0;100.0
69198;BME280;56311;50.298;8.514;2023-05-10T06:44:00;97180.0;;;12.0;100.0
69198;BME280;56311;50.298;8.514;2023-05-10T06:46:00;97180.0;;;12.0;100.0
69198;BME280;56311;50.298;8.514;2023-05-10T06:48:00;97180.0;;;12.0;100.0
69198;BME280;56311;50.298;8.514;2023-05-10T06:50:00;97180.0;;;12.1;100.0
69198;BME280;56311;50.298;8.514;2023-05-10T06:52:00;97190.0;;;12.2;100.0
69198;BME280;56311;50.298;8.514;2023-05-10T06:54:00;97190.0;;;12.3;100.0
69198;BME280;56311;50.298;8.514;2023-05-10T06:56:00;97190.0;;;12.3;100.0
69198;BME280;56311;50.298;8.514;2023-05-10T06:58:00;97190.0;;;12.4;100.0
69198;BME280;56311;50.298;8.514;2023-05-10T07:00:01;97190.0;;;12.3;100.0
69198;BME280;56311;50.298;8.514;2023-05-10T07:02:00;97190.0;;;12.3;100.0
69198;BME280;56311;50.298;8.514;2023-05-10T07:04:00;97200.0;;;12.3;100.0
69198;BME280;56311;50.298;8.514;2023-05-10T07:06:01;97200.0;;;12.3;100.0
69198;BME280;56311;50.298;8.514;2023-05-10T07:08:00;97200.0;;;12.4;100.0
69198;BME280;56311;50.298;8.514;2023-05-10T07:10:00;97200.0;;;12.5;100.0
69198;BME280;56311;50.298;8.514;2023-05-10T07:12:00;97210.0;;;12.4;100.0
69198;BME280;56311;50.298;8.514;2023-05-10T07:14:00;97210.0;;;12.4;100.0
69198;BME280;56311;50.298;8.514;2023-05-10T07:16:00;97210.0;;;12.4;100.0
69198;BME280;56311;50.298;8.514;2023-05-10T07:18:00;97210.0;;;12.4;100.0
69198;BME280;56311;50.298;8.514;2023-05-10T07:20:00;97210.0;;;12.4;100.0
69198;BME280;56311;50.298;8.514;2023-05-10T07:22:00;97210.0;;;12.5;100.0
69198;BME280;56311;50.298;8.514;2023-05-10T07:24:00;97220.0;;;12.5;100.0
69198;BME280;56311;50.298;8.514;2023-05-10T07:26:00;97210.0;;;12.5;100.0
69198;BME280;56311;50.298;8.514;2023-05-10T07:28:00;97220.0;;;12.6;100.0
69198;BME280;56311;50.298;8.514;2023-05-10T07:30:00;97230.0;;;12.5;100.0
69198;BME280;56311;50.298;8.514;2023-05-10T07:32:00;97220.0;;;12.5;100.0
69198;BME280;56311;50.298;8.514;2023-05-10T07:34:00;97230.0;;;12.5;100.0
69198;BME280;56311;50.298;8.514;2023-05-10T07:36:00;97230.0;;;12.6;100.0
69198;BME280;56311;50.298;8.514;2023-05-10T07:38:00;97230.0;;;12.6;100.0
69198;BME280;56311;50.298;8.514;2023-05-10T07:40:00;97230.0;;;12.6;100.0
69198;BME280;56311;50.298;8.514;2023-05-10T07:42:00;97230.0;;;12.7;100.0
69198;BME280;56311;50.298;8.514;2023-05-10T07:44:00;97230.0;;;12.7;100.0
69198;BME280;56311;50.298;8.514;2023-05-10T07:46:00;97230.0;;;12.7;100.0
69198;BME280;56311;50.298;8.514;2023-05-10T07:48:00;97230.0;;;12.7;100.0
69198;BME280;56311;50.298;8.514;2023-05-10T07:50:00;97230.0;;;12.6;100.0
69198;BME280;56311;50.298;8.514;2023-05-10T07:52:03;97230.0;;;12.7;100.0
69198;BME280;56311;50.298;8.514;2023-05-10T07:54:00;97230.0;;;12.7;100.0
69198;BME280;56311;50.298;8.514;2023-05-10T07:58:00;97230.0;;;12.9;100.0
69198;BME280;56311;50.298;8.514;2023-05-10T08:00:01;97230.0;;;13.0;100.0
69198;BME280;56311;50.298;8.514;2023-05-10T08:02:00;97240.0;;;13.1;100.0
69198;BME280;56311;50.298;8.514;2023-05-10T08:04:01;97240.0;;;13.2;100.0
69198;BME280;56311;50.298;8.514;2023-05-10T08:06:00;97240.0;;;13.1;100.0
69198;BME280;56311;50.298;8.514;2023-05-10T08:08:00;97240.0;;;13.1;100.0
69198;BME280;56311;50.298;8.514;2023-05-10T08:10:00;97240.0;;;13.3;100.0
69198;BME280;56311;50.298;8.514;2023-05-10T08:12:00;97240.0;;;13.4;100.0
69198;BME280;56311;50.298;8.514;2023-05-10T08:14:01;97240.0;;;13.6;100.0
69198;BME280;56311;50.298;8.514;2023-05-10T08:16:00;97250.0;;;13.6;100.0
69198;BME280;56311;50.298;8.514;2023-05-10T08:18:00;97250.0;;;13.6;100.0
69198;BME280;56311;50.298;8.514;2023-05-10T08:20:00;97250.0;;;13.7;100.0
69198;BME280;56311;50.298;8.514;2023-05-10T08:22:00;97250.0;;;13.6;100.0
69198;BME280;56311;50.298;8.514;2023-05-10T08:24:00;97250.0;;;13.5;100.0
69198;BME280;56311;50.298;8.514;2023-05-10T08:26:00;97250.0;;;13.4;100.0
69198;BME280;56311;50.298;8.514;2023-05-10T08:28:00;97260.0;;;13.3;100.0
69198;BME280;56311;50.298;8.514;2023-05-10T08:30:00;97260.0;;;13.2;100.0
69198;BME280;56311;50.298;8.514;2023-05-10T08:32:01;97260.0;;;13.2;100.0
69198;BME280;56311;50.298;8.514;2023-05-10T08:34:00;97260.0;;;13.2;100.0
69198;BME280;56311;50.298;8.514;2023-05-10T08:36:00;97260.0;;;13.1;100.0
69198;BME280;56311;50.298;8.514;2023-05-10T08:38:00;97260.0;;;13.0;100.0
69198;BME280;56311;50.298;8.514;2023-05-10T08:40:00;97260.0;;;12.9;100.0
69198;BME280;56311;50.298;8.514;2023-05-10T08:42:03;97260.0;;;12.9;100.0
69198;BME280;56311;50.298;8.514;2023-05-10T08:44:04;97270.0;;;13.0;100.0
69198;BME280;56311;50.298;8.514;2023-05-10T08:46:01;97270.0;;;13.1;100.0
69198;BME280;56311;50.298;8.514;2023-05-10T08:48:01;97270.0;;;13.1;100.0
69198;BME280;56311;50.298;8.514;2023-05-10T08:50:02;97280.0;;;13.0;100.0
69198;BME280;56311;50.298;8.514;2023-05-10T08:52:02;97270.0;;;12.9;100.0
69198;BME280;56311;50.298;8.514;2023-05-10T08:54:01;97270.0;;;12.9;100.0
69198;BME280;56311;50.298;8.514;2023-05-10T08:56:02;97280.0;;;12.9;100.0
69198;BME280;56311;50.298;8.514;2023-05-10T08:58:00;97280.0;;;12.9;100.0
69198;BME280;56311;50.298;8.514;2023-05-10T09:00:01;97280.0;;;12.9;100.0
69198;BME280;56311;50.298;8.514;2023-05-10T09:02:01;97280.0;;;12.9;100.0
69198;BME280;56311;50.298;8.514;2023-05-10T09:04:00;97280.0;;;13.0;100.0
69198;BME280;56311;50.298;8.514;2023-05-10T09:06:00;97280.0;;;13.2;100.0
69198;BME280;56311;50.298;8.514;2023-05-10T09:08:00;97280.0;;;13.4;100.0
69198;BME280;56311;50.298;8.514;2023-05-10T09:10:00;97290.0;;;13.4;100.0
69198;BME280;56311;50.298;8.514;2023-05-10T09:12:00;97290.0;;;13.5;100.0
69198;BME280;56311;50.298;8.514;2023-05-10T09:14:00;97290.0;;;13.6;100.0
69198;BME280;56311;50.298;8.514;2023-05-10T09:16:01;97290.0;;;13.5;100.0
69198;BME280;56311;50.298;8.514;2023-05-10T09:18:00;97300.0;;;13.5;100.0
69198;BME280;56311;50.298;8.514;2023-05-10T09:20:01;97300.0;;;13.6;100.0
69198;BME280;56311;50.298;8.514;2023-05-10T09:22:00;97300.0;;;13.8;100.0
69198;BME280;56311;50.298;8.514;2023-05-10T09:24:03;97300.0;;;14.1;100.0
69198;BME280;56311;50.298;8.514;2023-05-10T09:26:02;97300.0;;;14.2;100.0
69198;BME280;56311;50.298;8.514;2023-05-10T09:28:00;97300.0;;;14.1;100.0
69198;BME280;56311;50.298;8.514;2023-05-10T09:30:00;97300.0;;;14.1;100.0
69198;BME280;56311;50.298;8.514;2023-05-10T09:32:00;97290.0;;;14.3;100.0
69198;BME280;56311;50.298;8.514;2023-05-10T09:34:00;97290.0;;;14.5;100.0
69198;BME280;56311;50.298;8.514;2023-05-10T09:36:06;97290.0;;;14.9;100.0
69198;BME280;56311;50.298;8.514;2023-05-10T09:38:02;97300.0;;;14.7;100.0
69198;BME280;56311;50.298;8.514;2023-05-10T09:40:01;97300.0;;;14.7;100.0
69198;BME280;56311;50.298;8.514;2023-05-10T09:42:02;97300.0;;;14.3;100.0
69198;BME280;56311;50.298;8.514;2023-05-10T09:44:00;97300.0;;;14.3;100.0
69198;BME280;56311;50.298;8.514;2023-05-10T09:46:08;97300.0;;;14.1;100.0
69198;BME280;56311;50.298;8.514;2023-05-10T09:48:01;97300.0;;;14.1;100.0
69198;BME280;56311;50.298;8.514;2023-05-10T09:50:00;97300.0;;;14.1;100.0
69198;BME280;56311;50.298;8.514;2023-05-10T09:52:02;97300.0;;;14.1;100.0
69198;BME280;56311;50.298;8.514;2023-05-10T09:54:11;97300.0;;;14.4;100.0
69198;BME280;56311;50.298;8.514;2023-05-10T09:56:00;97300.0;;;14.4;100.0
69198;BME280;56311;50.298;8.514;2023-05-10T09:58:01;97300.0;;;14.5;100.0
69198;BME280;56311;50.298;8.514;2023-05-10T10:00:01;97300.0;;;14.7;100.0
69198;BME280;56311;50.298;8.514;2023-05-10T10:02:00;97310.0;;;14.6;100.0
69198;BME280;56311;50.298;8.514;2023-05-10T10:04:03;97300.0;;;14.8;100.0
69198;BME280;56311;50.298;8.514;2023-05-10T10:06:00;97300.0;;;14.8;100.0
69198;BME280;56311;50.298;8.514;2023-05-10T10:08:03;97300.0;;;15.2;100.0
69198;BME280;56311;50.298;8.514;2023-05-10T10:10:00;97310.0;;;15.4;100.0
69198;BME280;56311;50.298;8.514;2023-05-10T10:12:00;97310.0;;;15.4;100.0
69198;BME280;56311;50.298;8.514;2023-05-10T10:14:00;97310.0;;;15.3;100.0
69198;BME280;56311;50.298;8.514;2023-05-10T10:16:00;97300.0;;;15.4;100.0
69198;BME280;56311;50.298;8.514;2023-05-10T10:18:00;97300.0;;;15.2;100.0
69198;BME280;56311;50.298;8.514;2023-05-10T10:20:02;97300.0;;;15.2;100.0
69198;BME280;56311;50.298;8.514;2023-05-10T10:22:00;97310.0;;;15.2;100.0
69198;BME280;56311;50.298;8.514;2023-05-10T10:24:01;97310.0;;;15.2;100.0
69198;BME280;56311;50.298;8.514;2023-05-10T10:26:01;97310.0;;;14.9;100.0
69198;BME280;56311;50.298;8.514;2023-05-10T10:28:10;97310.0;;;14.8;100.0
69198;BME280;56311;50.298;8.514;2023-05-10T10:30:06;97310.0;;;14.9;100.0
69198;BME280;56311;50.298;8.514;2023-05-10T10:32:06;97320.0;;;14.8;100.0
69198;BME280;56311;50.298;8.514;2023-05-10T10:34:05;97310.0;;;14.7;100.0
69198;BME280;56311;50.298;8.514;2023-05-10T10:36:02;97320.0;;;14.5;100.0
69198;BME280;56311;50.298;8.514;2023-05-10T10:38:00;97320.0;;;14.5;100.0
69198;BME280;56311;50.298;8.514;2023-05-10T10:40:00;97320.0;;;14.4;100.0
69198;BME280;56311;50.298;8.514;2023-05-10T10:42:00;97330.0;;;14.3;100.0
69198;BME280;56311;50.298;8.514;2023-05-10T10:46:10;97330.0;;;14.4;100.0
69198;BME280;56311;50.298;8.514;2023-05-10T10:50:06;97330.0;;;14.1;100.0
69198;BME280;56311;50.298;8.514;2023-05-10T10:52:14;97340.0;;;14.2;100.0
69198;BME280;56311;50.298;8.514;2023-05-10T10:54:08;97330.0;;;14.3;100.0
69198;BME280;56311;50.298;8.514;2023-05-10T10:56:09;97330.0;;;14.2;100.0
69198;BME280;56311;50.298;8.514;2023-05-10T10:58:00;97330.0;;;14.2;100.0
69198;BME280;56311;50.298;8.514;2023-05-10T11:00:20;97330.0;;;14.3;100.0
69198;BME280;56311;50.298;8.514;2023-05-10T11:02:00;97330.0;;;14.4;100.0
69198;BME280;56311;50.298;8.514;2023-05-10T11:04:18;97320.0;;;14.6;100.0
69198;BME280;56311;50.298;8.514;2023-05-10T11:06:00;97330.0;;;14.6;100.0
69198;BME280;56311;50.298;8.514;2023-05-10T11:08:07;97330.0;;;14.6;100.0